Time;durP1;ratioP1;P1;durP2;ratioP2;P2;SDS_P1;SDS_P2;PMS_P1;PMS_P2;Temp;Humidity;BMP_temperature;BMP_pressure;BME280_temperature;BME280_humidity;BME280_pressure;Samples;Min_cycle;Max_cycle;Signal;HPM_P1;HPM_P2
2022/06/19 00:00:56;;;;;;;5.80;3.30;;;20.40;99.90;;;;;;5013223;28;20467;-72
2022/06/19 00:03:28;;;;;;;10.10;4.30;;;20.30;99.90;;;;;;5014095;28;20935;-72
2022/06/19 00:05:55;;;;;;;9.07;4.73;;;20.30;99.90;;;;;;5013843;28;20895;-72
2022/06/19 00:08:23;;;;;;;8.97;3.87;;;20.30;99.90;;;;;;5013421;28;20473;-72
2022/06/19 00:10:51;;;;;;;8.20;4.10;;;20.20;99.90;;;;;;5013299;28;20908;-72
2022/06/19 00:13:18;;;;;;;6.50;3.63;;;20.10;99.90;;;;;;5013350;28;20484;-72
2022/06/19 00:15:45;;;;;;;9.43;3.80;;;20.00;99.90;;;;;;5013495;28;20457;-72
2022/06/19 00:18:12;;;;;;;11.07;4.27;;;20.00;99.90;;;;;;5013108;28;20485;-72
2022/06/19 00:20:39;;;;;;;8.80;4.47;;;19.90;99.90;;;;;;5013022;28;20461;-72
2022/06/19 00:23:07;;;;;;;12.23;4.33;;;19.90;99.90;;;;;;5013316;28;20840;-72
2022/06/19 00:25:34;;;;;;;6.60;4.77;;;19.80;99.90;;;;;;5013240;28;20507;-72
2022/06/19 00:28:02;;;;;;;9.30;3.80;;;19.80;99.90;;;;;;5013295;28;20527;-72
2022/06/19 00:30:29;;;;;;;7.60;3.40;;;19.70;99.90;;;;;;5012700;28;20468;-72
2022/06/19 00:32:56;;;;;;;11.23;4.20;;;19.70;99.90;;;;;;5013419;28;20496;-72
2022/06/19 00:35:22;;;;;;;8.93;4.17;;;19.60;99.90;;;;;;5013205;28;20468;-72
2022/06/19 00:37:49;;;;;;;9.50;4.20;;;19.60;99.90;;;;;;5012946;28;20492;-72
2022/06/19 00:40:16;;;;;;;9.90;3.57;;;19.60;99.90;;;;;;5012933;28;20468;-73
2022/06/19 00:42:43;;;;;;;5.20;3.40;;;19.50;99.90;;;;;;5012941;28;20468;-72
2022/06/19 00:45:30;;;;;;;8.67;3.80;;;19.50;99.90;;;;;;5013584;28;20500;-72
2022/06/19 00:47:58;;;;;;;7.57;4.00;;;19.50;99.90;;;;;;5012694;28;20542;-72
2022/06/19 00:50:28;;;;;;;7.37;4.03;;;19.40;99.90;;;;;;5012359;28;20459;-72
2022/06/19 00:52:55;;;;;;;7.73;4.03;;;19.30;99.90;;;;;;5013040;28;20461;-72
2022/06/19 00:55:26;;;;;;;7.47;4.23;;;19.30;99.90;;;;;;5012551;28;20458;-72
2022/06/19 00:57:58;;;;;;;7.43;4.40;;;19.30;99.90;;;;;;5012655;28;20571;-72
2022/06/19 01:00:28;;;;;;;8.60;4.33;;;19.30;99.90;;;;;;5012034;28;20472;-72
2022/06/19 01:02:59;;;;;;;12.90;4.13;;;19.20;99.90;;;;;;5012772;28;20489;-72
2022/06/19 01:05:28;;;;;;;10.00;4.90;;;19.20;99.90;;;;;;5012616;28;20495;-72
2022/06/19 01:07:57;;;;;;;8.07;3.77;;;19.20;99.90;;;;;;5012285;28;20484;-72
2022/06/19 01:10:24;;;;;;;12.00;4.27;;;19.10;99.90;;;;;;5011848;28;20468;-72
2022/06/19 01:12:51;;;;;;;8.00;4.40;;;19.10;99.90;;;;;;5012396;28;20461;-72
2022/06/19 01:15:21;;;;;;;6.37;3.57;;;19.10;99.90;;;;;;5012476;28;20468;-72
2022/06/19 01:17:50;;;;;;;7.20;3.57;;;19.10;99.90;;;;;;5012382;28;20481;-72
2022/06/19 01:20:19;;;;;;;8.50;3.97;;;19.10;99.90;;;;;;5011748;28;20470;-72
2022/06/19 01:22:54;;;;;;;10.10;5.23;;;19.10;99.90;;;;;;5012608;28;20457;-72
2022/06/19 01:25:27;;;;;;;7.00;3.50;;;19.10;99.90;;;;;;5011999;28;20492;-72
2022/06/19 01:30:44;;;;;;;7.83;3.50;;;19.00;99.90;;;;;;5011529;28;20448;-71
2022/06/19 01:33:17;;;;;;;7.27;3.93;;;19.00;99.90;;;;;;5012216;28;20484;-72
2022/06/19 01:35:46;;;;;;;6.20;4.07;;;18.90;99.90;;;;;;5011738;28;20815;-72
2022/06/19 01:38:15;;;;;;;7.23;3.97;;;18.90;99.90;;;;;;5011669;28;20561;-72
2022/06/19 01:40:46;;;;;;;8.87;4.73;;;18.90;99.90;;;;;;5011691;28;20465;-72
2022/06/19 01:43:13;;;;;;;12.13;4.10;;;18.90;99.90;;;;;;5011804;28;20841;-72
2022/06/19 01:45:44;;;;;;;7.20;4.17;;;18.90;99.90;;;;;;5012005;28;20511;-72
2022/06/19 01:48:12;;;;;;;13.63;4.60;;;18.80;99.90;;;;;;5011557;28;20489;-72
2022/06/19 01:50:38;;;;;;;6.23;3.60;;;18.80;99.90;;;;;;5011733;28;20464;-72
2022/06/19 01:53:09;;;;;;;6.43;4.20;;;18.80;99.90;;;;;;5011976;28;20461;-72
2022/06/19 01:55:38;;;;;;;7.53;4.10;;;18.70;99.90;;;;;;5011828;28;20458;-72
2022/06/19 01:58:06;;;;;;;6.07;4.20;;;18.70;99.90;;;;;;5011849;28;20515;-72
2022/06/19 02:00:35;;;;;;;7.07;3.63;;;18.60;99.90;;;;;;5011074;28;20461;-72
2022/06/19 02:03:11;;;;;;;7.60;3.37;;;18.60;99.90;;;;;;5011945;28;20468;-72
2022/06/19 02:05:40;;;;;;;5.47;3.63;;;18.60;99.90;;;;;;5011654;28;20492;-72
2022/06/19 02:08:08;;;;;;;7.93;3.40;;;18.60;99.90;;;;;;5011498;28;20861;-71
2022/06/19 02:10:36;;;;;;;11.80;5.17;;;18.60;99.90;;;;;;5011157;28;20461;-72
2022/06/19 02:13:05;;;;;;;7.13;3.83;;;18.60;99.90;;;;;;5011356;28;20473;-71
2022/06/19 02:15:33;;;;;;;13.53;3.63;;;18.60;99.90;;;;;;5011668;28;20464;-72
2022/06/19 02:18:02;;;;;;;8.57;3.37;;;18.60;99.90;;;;;;5011243;28;20560;-71
2022/06/19 02:20:29;;;;;;;7.60;3.47;;;18.70;99.90;;;;;;5011265;28;20465;-72
2022/06/19 02:22:57;;;;;;;7.50;3.87;;;18.70;99.90;;;;;;5011271;28;20884;-71
2022/06/19 02:25:23;;;;;;;6.97;3.40;;;18.70;99.90;;;;;;5011205;28;20572;-72
2022/06/19 02:27:50;;;;;;;5.60;3.90;;;18.70;99.90;;;;;;5011433;28;20492;-71
2022/06/19 02:30:20;;;;;;;13.50;4.30;;;18.80;99.90;;;;;;5010501;28;20464;-72
2022/06/19 02:32:49;;;;;;;8.80;3.70;;;18.80;99.90;;;;;;5011605;28;20964;-72
2022/06/19 02:35:20;;;;;;;8.73;3.87;;;18.80;99.90;;;;;;5011107;28;20948;-72
2022/06/19 02:37:50;;;;;;;9.57;3.87;;;18.80;99.90;;;;;;5011181;28;20488;-71
2022/06/19 02:40:30;;;;;;;6.97;3.67;;;18.80;99.90;;;;;;5010604;28;20517;-72
2022/06/19 02:42:57;;;;;;;11.00;3.87;;;18.70;99.90;;;;;;5010973;28;20457;-72
2022/06/19 02:45:28;;;;;;;7.07;3.70;;;18.70;99.90;;;;;;5010740;28;20515;-72
2022/06/19 02:47:57;;;;;;;10.90;4.13;;;18.70;99.90;;;;;;5010109;28;20485;-72
2022/06/19 02:50:26;;;;;;;6.90;3.63;;;18.70;99.90;;;;;;5010601;28;20461;-72
2022/06/19 02:52:54;;;;;;;7.53;3.80;;;18.70;99.90;;;;;;5010831;28;20461;-72
2022/06/19 02:55:22;;;;;;;11.80;4.17;;;18.80;99.90;;;;;;5010856;28;20941;-72
2022/06/19 02:57:49;;;;;;;7.80;3.70;;;19.10;99.90;;;;;;5010870;28;20489;-72
2022/06/19 03:00:19;;;;;;;9.40;4.07;;;19.30;99.90;;;;;;5010037;28;20877;-72
2022/06/19 03:02:48;;;;;;;7.47;3.70;;;19.60;99.90;;;;;;5011095;28;20465;-72
2022/06/19 03:05:19;;;;;;;11.67;4.33;;;19.60;99.90;;;;;;5010577;28;20497;-72
2022/06/19 03:07:46;;;;;;;8.63;3.63;;;19.80;99.90;;;;;;5010812;28;21044;-72
2022/06/19 03:10:13;;;;;;;13.97;4.00;;;19.70;99.90;;;;;;5010385;28;20461;-72
2022/06/19 03:12:39;;;;;;;10.23;3.97;;;19.70;99.90;;;;;;5010992;28;20833;-71
2022/06/19 03:15:07;;;;;;;9.23;4.30;;;19.60;99.90;;;;;;5010957;28;20907;-71
2022/06/19 03:17:34;;;;;;;11.40;4.63;;;19.50;99.90;;;;;;5010518;28;20477;-71
2022/06/19 03:20:02;;;;;;;9.83;4.07;;;19.40;99.90;;;;;;5010463;28;20477;-71
2022/06/19 03:22:28;;;;;;;6.37;4.00;;;19.30;99.90;;;;;;5010991;28;20483;-73
2022/06/19 03:24:55;;;;;;;7.87;3.87;;;19.20;99.90;;;;;;5010355;28;20485;-72
2022/06/19 03:27:22;;;;;;;9.67;3.50;;;19.10;99.90;;;;;;5010609;28;20497;-72
2022/06/19 03:29:48;;;;;;;12.80;4.60;;;19.10;99.90;;;;;;5010016;28;20469;-72
2022/06/19 03:32:15;;;;;;;8.60;4.20;;;19.00;99.90;;;;;;5010675;28;20468;-72
2022/06/19 03:34:43;;;;;;;7.07;3.67;;;19.00;99.90;;;;;;5010899;28;20563;-72
2022/06/19 03:37:12;;;;;;;9.50;4.20;;;18.90;99.90;;;;;;5010057;28;20481;-72
2022/06/19 03:39:39;;;;;;;7.50;3.60;;;18.80;99.90;;;;;;5010183;28;20508;-72
2022/06/19 03:42:06;;;;;;;6.53;4.10;;;18.80;99.90;;;;;;5010217;28;20976;-72
2022/06/19 03:44:33;;;;;;;12.63;4.33;;;18.70;99.90;;;;;;5010687;28;20465;-72
2022/06/19 03:46:59;;;;;;;9.20;4.20;;;18.70;99.90;;;;;;5010525;28;20496;-73
2022/06/19 03:49:27;;;;;;;9.60;4.43;;;18.70;99.90;;;;;;5009924;28;20800;-72
2022/06/19 03:51:53;;;;;;;10.33;3.83;;;18.70;99.90;;;;;;5010825;28;20515;-73
2022/06/19 03:54:22;;;;;;;7.70;4.10;;;18.70;99.90;;;;;;5010220;28;20863;-72
2022/06/19 03:56:48;;;;;;;9.47;3.97;;;18.70;99.90;;;;;;5010428;28;20903;-72
2022/06/19 03:59:15;;;;;;;9.87;4.00;;;18.70;99.90;;;;;;5012991;28;20469;-72
2022/06/19 04:01:42;;;;;;;7.70;3.83;;;18.70;99.90;;;;;;5013980;28;20465;-72
2022/06/19 04:04:10;;;;;;;6.10;3.97;;;18.70;99.90;;;;;;5013974;28;20877;-72
2022/06/19 04:06:38;;;;;;;12.27;4.87;;;18.70;99.90;;;;;;5013686;28;20579;-72
2022/06/19 04:09:08;;;;;;;7.10;3.77;;;18.70;99.90;;;;;;5013657;28;20461;-73
2022/06/19 04:11:36;;;;;;;8.63;4.70;;;18.70;99.90;;;;;;5013631;28;20487;-72
2022/06/19 04:14:03;;;;;;;9.00;4.20;;;18.70;99.90;;;;;;5014158;28;20453;-72
2022/06/19 04:16:33;;;;;;;7.60;4.40;;;18.70;99.90;;;;;;5013609;28;20481;-72
2022/06/19 04:19:02;;;;;;;10.97;4.47;;;18.70;99.90;;;;;;5013435;28;20465;-72
2022/06/19 04:21:32;;;;;;;7.30;4.10;;;18.70;99.90;;;;;;5012180;28;20591;-72
2022/06/19 04:24:03;;;;;;;9.20;4.00;;;18.80;99.90;;;;;;5013299;28;20488;-72
2022/06/19 04:26:32;;;;;;;12.47;4.40;;;18.80;99.90;;;;;;5013743;28;20507;-72
2022/06/19 04:29:00;;;;;;;11.57;4.63;;;18.90;99.90;;;;;;5013459;28;20987;-73
2022/06/19 04:31:28;;;;;;;8.00;3.60;;;18.90;99.90;;;;;;5013048;28;20468;-73
2022/06/19 04:33:54;;;;;;;6.47;3.67;;;18.90;99.90;;;;;;5013403;28;20807;-72
2022/06/19 04:36:24;;;;;;;9.70;3.60;;;19.00;99.90;;;;;;5013198;28;20453;-73
2022/06/19 04:38:54;;;;;;;11.10;4.10;;;19.10;99.90;;;;;;5104598;22;20494;-71
2022/06/19 04:41:23;;;;;;;9.03;4.57;;;19.20;99.90;;;;;;4973688;28;20463;-70
2022/06/19 04:43:51;;;;;;;8.97;4.10;;;19.30;99.90;;;;;;4974124;28;20497;-70
2022/06/19 04:46:19;;;;;;;10.30;4.50;;;19.40;99.90;;;;;;4973943;28;20490;-70
2022/06/19 04:48:46;;;;;;;7.43;4.30;;;19.60;99.90;;;;;;4973956;28;20459;-71
2022/06/19 04:51:14;;;;;;;12.70;4.30;;;19.80;99.90;;;;;;4973373;28;20979;-70
2022/06/19 04:53:41;;;;;;;15.20;4.20;;;20.00;99.90;;;;;;4974017;28;20510;-69
2022/06/19 04:56:11;;;;;;;7.80;4.03;;;20.10;99.90;;;;;;4973673;28;20467;-70
2022/06/19 04:58:38;;;;;;;11.73;3.70;;;20.30;99.90;;;;;;5049657;23;20569;-78
2022/06/19 05:01:09;;;;;;;8.70;3.70;;;20.40;99.90;;;;;;4993987;28;20454;-78
2022/06/19 05:03:37;;;;;;;9.87;4.00;;;20.50;99.90;;;;;;4995244;28;20458;-78
2022/06/19 05:06:05;;;;;;;5.87;3.67;;;20.60;99.90;;;;;;4995500;28;20486;-79
2022/06/19 05:08:32;;;;;;;10.27;6.10;;;20.60;99.90;;;;;;4995050;28;20492;-78
2022/06/19 05:10:59;;;;;;;13.87;4.30;;;20.70;99.90;;;;;;4994230;28;20473;-79
2022/06/19 05:13:26;;;;;;;7.07;3.93;;;20.80;99.90;;;;;;4995376;28;20462;-78
2022/06/19 05:16:03;;;;;;;8.07;3.70;;;20.90;99.90;;;;;;4995601;28;20954;-78
2022/06/19 05:18:30;;;;;;;8.30;3.70;;;21.00;99.90;;;;;;4995005;28;20496;-79
2022/06/19 05:21:01;;;;;;;7.97;4.00;;;21.20;99.90;;;;;;4994563;28;20472;-79
2022/06/19 05:23:27;;;;;;;8.60;4.40;;;21.40;99.90;;;;;;4994695;28;20466;-79
2022/06/19 05:25:59;;;;;;;10.80;4.40;;;21.50;99.90;;;;;;4994811;28;20496;-78
2022/06/19 05:28:26;;;;;;;13.77;4.37;;;21.60;99.90;;;;;;4994609;28;20544;-79
2022/06/19 05:30:53;;;;;;;6.83;3.60;;;21.80;99.90;;;;;;4994249;28;20473;-78
2022/06/19 05:33:19;;;;;;;10.97;4.03;;;21.90;99.90;;;;;;4994928;28;20458;-78
2022/06/19 05:35:46;;;;;;;12.10;4.70;;;22.00;99.90;;;;;;4965896;28;20459;-78
2022/06/19 05:38:14;;;;;;;12.83;4.13;;;22.10;99.90;;;;;;4970177;28;20475;-78
2022/06/19 05:40:41;;;;;;;11.73;4.00;;;22.20;99.90;;;;;;4968505;28;20457;-78
2022/06/19 05:43:08;;;;;;;8.87;4.33;;;22.30;99.90;;;;;;4966400;28;20462;-79
2022/06/19 05:45:35;;;;;;;8.33;4.43;;;22.40;99.90;;;;;;4963298;28;20467;-76
2022/06/19 05:48:03;;;;;;;10.80;4.13;;;22.40;99.90;;;;;;4961718;28;20484;-78
2022/06/19 05:50:29;;;;;;;9.60;4.80;;;22.60;99.90;;;;;;4962156;28;20471;-78
2022/06/19 05:52:56;;;;;;;10.50;4.80;;;22.70;99.90;;;;;;4962834;28;20463;-76
2022/06/19 05:55:24;;;;;;;13.90;5.00;;;22.70;99.90;;;;;;4962621;28;20908;-78
2022/06/19 05:57:51;;;;;;;9.90;3.70;;;22.90;99.90;;;;;;4961941;28;20494;-76
2022/06/19 06:00:18;;;;;;;10.00;5.60;;;23.10;99.90;;;;;;4962469;28;20467;-76
2022/06/19 06:02:45;;;;;;;11.97;4.60;;;23.20;99.90;;;;;;4961962;28;20463;-76
2022/06/19 06:05:12;;;;;;;11.40;4.20;;;23.30;99.80;;;;;;4964034;28;20474;-79
2022/06/19 06:07:39;;;;;;;8.90;4.13;;;23.40;99.90;;;;;;4962336;28;20499;-79
2022/06/19 06:10:07;;;;;;;9.93;4.23;;;23.60;99.30;;;;;;4961370;28;20514;-79
2022/06/19 06:12:35;;;;;;;8.73;5.37;;;23.60;99.20;;;;;;4962825;28;20463;-77
2022/06/19 06:15:02;;;;;;;8.10;4.20;;;23.80;99.60;;;;;;4961608;28;20464;-77
2022/06/19 06:17:28;;;;;;;9.63;4.07;;;23.90;99.30;;;;;;4961191;28;20507;-77
2022/06/19 06:19:55;;;;;;;12.60;4.77;;;23.90;99.10;;;;;;4962059;28;20461;-77
2022/06/19 06:22:22;;;;;;;9.23;4.27;;;24.00;98.80;;;;;;4961428;28;20464;-77
2022/06/19 06:24:48;;;;;;;11.27;4.60;;;24.00;98.80;;;;;;4961601;28;20460;-77
2022/06/19 06:27:15;;;;;;;9.57;4.60;;;24.20;98.40;;;;;;4964637;28;20498;-75
2022/06/19 06:29:43;;;;;;;11.70;3.87;;;24.30;99.10;;;;;;4962119;28;20463;-76
2022/06/19 06:32:10;;;;;;;11.53;4.30;;;24.50;97.90;;;;;;4962160;28;20478;-77
2022/06/19 06:34:36;;;;;;;12.03;4.50;;;24.60;98.40;;;;;;4963046;28;20886;-77
2022/06/19 06:37:03;;;;;;;9.83;4.30;;;24.70;98.20;;;;;;4962133;28;20476;-77
2022/06/19 06:39:30;;;;;;;12.60;4.40;;;24.90;98.80;;;;;;4960189;28;20466;-76
2022/06/19 06:41:56;;;;;;;12.30;5.00;;;25.00;98.80;;;;;;4962434;28;20463;-76
2022/06/19 06:44:23;;;;;;;9.90;4.20;;;25.20;98.60;;;;;;4961483;28;20463;-76
2022/06/19 06:46:51;;;;;;;12.30;5.00;;;25.30;98.20;;;;;;4959523;28;20499;-76
2022/06/19 06:49:18;;;;;;;11.47;4.23;;;25.50;97.90;;;;;;4960954;28;20464;-76
2022/06/19 06:51:45;;;;;;;10.80;5.20;;;25.60;98.00;;;;;;4961922;28;20467;-74
2022/06/19 06:54:11;;;;;;;11.60;4.53;;;25.70;97.60;;;;;;4960270;28;20838;-76
2022/06/19 06:56:38;;;;;;;9.93;5.07;;;25.80;97.30;;;;;;4960798;28;20479;-75
2022/06/19 06:59:05;;;;;;;18.70;5.03;;;26.00;97.50;;;;;;4961610;28;20467;-75
2022/06/19 07:01:32;;;;;;;9.53;4.00;;;26.10;97.40;;;;;;4960088;28;20464;-75
2022/06/19 07:04:01;;;;;;;9.07;4.57;;;26.10;97.70;;;;;;4960539;28;20483;-76
2022/06/19 07:06:29;;;;;;;11.97;4.87;;;26.00;97.50;;;;;;4961914;28;21256;-75
2022/06/19 07:08:56;;;;;;;9.37;4.60;;;26.00;97.30;;;;;;4960507;28;20478;-74
2022/06/19 07:11:24;;;;;;;15.00;4.90;;;25.90;97.30;;;;;;4959874;28;20468;-75
2022/06/19 07:13:51;;;;;;;14.93;5.43;;;26.00;97.50;;;;;;4961364;28;20976;-75
2022/06/19 07:16:18;;;;;;;10.10;4.97;;;26.20;97.40;;;;;;4961612;28;20456;-75
2022/06/19 07:18:45;;;;;;;10.90;4.73;;;26.30;98.10;;;;;;4959723;28;20464;-76
2022/06/19 07:21:13;;;;;;;10.50;4.40;;;26.50;98.10;;;;;;4961269;28;20895;-76
2022/06/19 07:23:41;;;;;;;10.07;4.90;;;26.50;97.30;;;;;;4961331;28;20972;-77
2022/06/19 07:26:10;;;;;;;8.60;4.43;;;26.60;97.70;;;;;;4971342;28;20468;-75
2022/06/19 07:28:37;;;;;;;11.87;6.37;;;26.80;97.10;;;;;;4971277;28;20495;-75
2022/06/19 07:34:03;;;;;;;9.50;4.33;;;26.90;97.30;;;;;;4950135;28;21033;-76
2022/06/19 07:36:32;;;;;;;10.33;5.00;;;27.00;97.60;;;;;;4993222;28;20480;-75
2022/06/19 07:38:59;;;;;;;12.40;4.70;;;27.10;97.90;;;;;;4993039;28;20469;-75
2022/06/19 07:41:26;;;;;;;12.20;5.43;;;27.20;97.30;;;;;;4993162;28;20475;-75
2022/06/19 07:43:53;;;;;;;11.30;5.60;;;27.40;98.10;;;;;;4993759;28;20460;-76
2022/06/19 07:46:21;;;;;;;12.40;5.90;;;27.50;98.40;;;;;;4993215;28;20485;-76
2022/06/19 07:51:33;;;;;;;8.73;5.77;;;27.60;96.80;;;;;;4993588;28;20563;-76
2022/06/19 07:54:01;;;;;;;9.93;5.23;;;27.80;96.90;;;;;;4992971;28;20462;-76
2022/06/19 07:56:28;;;;;;;8.73;5.47;;;27.90;96.70;;;;;;4992852;28;20484;-76
2022/06/19 07:58:56;;;;;;;9.17;6.83;;;28.10;96.50;;;;;;4992172;28;20470;-76
2022/06/19 08:01:24;;;;;;;7.63;5.70;;;28.20;96.80;;;;;;4992030;28;20462;-76
2022/06/19 08:03:51;;;;;;;8.37;6.00;;;28.30;96.40;;;;;;4992792;28;20975;-76
2022/06/19 08:06:19;;;;;;;10.13;6.53;;;28.40;96.50;;;;;;4993047;28;20464;-76
2022/06/19 08:08:48;;;;;;;11.00;6.20;;;28.60;96.80;;;;;;4992691;28;20463;-76
2022/06/19 08:11:14;;;;;;;9.43;7.00;;;28.60;96.60;;;;;;4992831;28;20470;-77
2022/06/19 08:13:41;;;;;;;8.10;6.63;;;28.60;97.30;;;;;;4992989;28;20647;-75
2022/06/19 08:16:10;;;;;;;9.10;6.70;;;28.60;96.30;;;;;;4992559;28;20830;-74
2022/06/19 08:18:38;;;;;;;14.03;7.10;;;28.70;96.70;;;;;;4994520;28;20489;-76
2022/06/19 08:21:05;;;;;;;14.40;7.40;;;28.80;96.00;;;;;;4993219;28;20981;-75
2022/06/19 08:23:32;;;;;;;9.20;7.07;;;28.90;95.10;;;;;;4993529;28;20473;-78
2022/06/19 08:26:01;;;;;;;10.77;7.33;;;29.10;94.70;;;;;;4991311;28;20474;-77
2022/06/19 08:28:31;;;;;;;9.20;7.73;;;29.20;95.00;;;;;;4992129;28;21017;-77
2022/06/19 08:30:58;;;;;;;8.37;7.07;;;29.30;94.60;;;;;;4991885;28;20473;-78
2022/06/19 08:33:25;;;;;;;12.03;7.60;;;29.30;94.50;;;;;;4992853;28;20467;-78
2022/06/19 08:35:57;;;;;;;10.03;7.80;;;29.40;94.40;;;;;;4992509;28;20474;-78
2022/06/19 08:38:28;;;;;;;11.10;7.37;;;29.50;94.90;;;;;;4993044;28;20478;-78
2022/06/19 08:41:19;;;;;;;13.17;7.90;;;29.60;94.20;;;;;;4989928;28;20473;-78
2022/06/19 08:44:15;;;;;;;14.90;8.60;;;29.70;93.00;;;;;;4993090;28;20506;-78
2022/06/19 08:46:53;;;;;;;11.90;8.43;;;29.80;92.60;;;;;;4996567;28;20495;-78
2022/06/19 08:49:37;;;;;;;12.30;7.73;;;30.00;92.50;;;;;;4994122;28;20498;-77
2022/06/19 08:52:18;;;;;;;14.00;8.10;;;30.10;92.50;;;;;;4993413;28;20462;-77
2022/06/19 08:54:59;;;;;;;12.33;8.27;;;30.30;93.90;;;;;;4992390;28;20466;-77
2022/06/19 08:57:33;;;;;;;8.67;7.37;;;30.40;93.50;;;;;;4992300;28;20491;-77
2022/06/19 09:00:09;;;;;;;11.20;8.13;;;30.50;92.90;;;;;;4992819;28;20463;-77
2022/06/19 09:02:44;;;;;;;12.60;9.10;;;30.60;93.50;;;;;;4992676;28;20826;-77
2022/06/19 09:05:38;;;;;;;14.13;8.37;;;30.80;92.10;;;;;;4994285;28;20458;-76
2022/06/19 09:08:23;;;;;;;14.83;8.33;;;30.90;92.50;;;;;;4983474;28;20524;-77
2022/06/19 09:10:55;;;;;;;11.33;8.90;;;31.00;91.70;;;;;;4987499;28;20472;-76
2022/06/19 09:13:45;;;;;;;14.57;8.77;;;31.00;90.20;;;;;;4990385;28;20468;-77
2022/06/19 09:16:24;;;;;;;13.47;9.33;;;31.10;90.10;;;;;;4986525;28;20477;-77
2022/06/19 09:19:01;;;;;;;15.40;8.97;;;31.30;88.20;;;;;;4971759;28;20469;-77
2022/06/19 09:21:45;;;;;;;18.10;6.80;;;31.30;86.10;;;;;;4970981;28;20473;-76
2022/06/19 09:24:27;;;;;;;8.70;7.17;;;31.30;82.20;;;;;;4972118;28;20847;-78
2022/06/19 09:26:58;;;;;;;14.00;7.33;;;31.40;81.90;;;;;;4968986;28;20494;-77
2022/06/19 09:29:32;;;;;;;11.27;7.00;;;31.50;80.60;;;;;;4970680;28;20471;-78
2022/06/19 09:32:06;;;;;;;9.00;7.37;;;31.60;82.80;;;;;;4969793;28;20472;-78
2022/06/19 09:34:38;;;;;;;9.73;8.03;;;31.70;84.60;;;;;;4969336;28;20494;-79
2022/06/19 09:37:10;;;;;;;11.60;8.00;;;31.90;82.20;;;;;;4967369;28;20494;-79
2022/06/19 09:39:47;;;;;;;12.40;7.63;;;31.90;81.50;;;;;;4968212;28;20500;-78
2022/06/19 09:42:18;;;;;;;8.43;7.63;;;32.00;82.10;;;;;;4969731;28;20598;-78
2022/06/19 09:44:50;;;;;;;15.17;7.70;;;32.10;82.60;;;;;;4969024;28;20601;-77
2022/06/19 09:47:29;;;;;;;11.97;8.47;;;32.20;82.60;;;;;;4970367;28;20540;-77
2022/06/19 09:50:00;;;;;;;10.53;7.40;;;32.30;82.10;;;;;;4971229;28;20489;-77
2022/06/19 09:52:33;;;;;;;10.57;8.00;;;32.40;79.50;;;;;;4970827;28;20477;-78
2022/06/19 09:55:08;;;;;;;10.17;7.47;;;32.60;83.80;;;;;;4972462;28;20821;-79
2022/06/19 09:57:39;;;;;;;11.70;7.13;;;32.60;80.30;;;;;;4970888;28;20947;-77
2022/06/19 10:00:10;;;;;;;7.10;6.40;;;32.50;81.40;;;;;;4970891;28;20468;-78
2022/06/19 10:02:46;;;;;;;10.90;6.80;;;32.60;78.20;;;;;;4968748;28;20466;-78
2022/06/19 10:05:19;;;;;;;7.17;6.47;;;32.60;80.20;;;;;;4970141;28;20477;-78
2022/06/19 10:07:53;;;;;;;9.80;7.50;;;32.80;81.40;;;;;;4971136;28;20684;-78
2022/06/19 10:10:27;;;;;;;9.77;7.30;;;32.90;77.50;;;;;;4971590;28;20547;-77
2022/06/19 10:12:56;;;;;;;12.40;6.80;;;32.70;75.80;;;;;;4969883;28;20464;-77
2022/06/19 10:15:29;;;;;;;11.77;6.90;;;32.90;77.60;;;;;;4970504;28;20469;-78
2022/06/19 10:18:01;;;;;;;11.40;6.90;;;33.00;78.60;;;;;;4969044;28;20481;-77
2022/06/19 10:20:38;;;;;;;7.40;6.50;;;33.00;76.20;;;;;;4970297;28;20471;-78
2022/06/19 10:23:15;;;;;;;6.73;5.93;;;33.00;75.90;;;;;;4969940;28;20478;-78
2022/06/19 10:25:53;;;;;;;11.30;7.07;;;32.90;75.40;;;;;;4970204;28;20481;-77
2022/06/19 10:28:40;;;;;;;9.90;7.37;;;33.00;76.40;;;;;;4969110;28;20496;-77
2022/06/19 10:31:31;;;;;;;13.43;7.13;;;33.00;76.50;;;;;;4968311;28;20467;-77
2022/06/19 10:34:11;;;;;;;8.33;7.30;;;33.10;77.70;;;;;;4969653;28;20543;-76
2022/06/19 10:36:43;;;;;;;12.60;6.30;;;33.40;80.30;;;;;;4968649;28;20480;-77
2022/06/19 10:39:32;;;;;;;12.60;6.67;;;33.50;75.70;;;;;;4967600;28;20847;-77
2022/06/19 10:42:05;;;;;;;11.00;6.63;;;33.70;76.50;;;;;;4965955;28;20839;-77
2022/06/19 10:44:46;;;;;;;15.60;7.93;;;33.80;79.50;;;;;;4969569;28;20473;-78
2022/06/19 10:47:24;;;;;;;10.93;6.57;;;33.90;76.20;;;;;;4964931;28;20868;-77
2022/06/19 10:50:02;;;;;;;10.40;6.83;;;33.90;74.90;;;;;;4967285;28;20464;-78
2022/06/19 10:52:40;;;;;;;10.83;6.03;;;34.00;75.90;;;;;;4969105;28;20477;-77
2022/06/19 10:55:20;;;;;;;12.13;6.37;;;34.00;73.80;;;;;;4967925;28;20467;-78
2022/06/19 10:58:02;;;;;;;12.43;6.53;;;34.00;72.10;;;;;;5037505;23;20473;-74
2022/06/19 11:00:29;;;;;;;12.27;6.03;;;33.90;72.70;;;;;;4984390;28;20470;-73
2022/06/19 11:05:59;;;;;;;9.00;5.60;;;33.90;70.40;;;;;;4985999;28;20443;-73
2022/06/19 11:08:29;;;;;;;9.23;6.50;;;34.10;74.30;;;;;;4987171;28;20491;-73
2022/06/19 11:10:59;;;;;;;8.53;5.70;;;34.10;71.70;;;;;;4990175;28;20475;-73
2022/06/19 11:13:59;;;;;;;8.23;5.93;;;34.10;71.70;;;;;;4991410;28;21005;-72
2022/06/19 11:16:26;;;;;;;7.80;5.73;;;34.20;72.60;;;;;;4992135;28;20505;-73
2022/06/19 11:18:54;;;;;;;12.20;6.00;;;34.40;71.20;;;;;;4993345;28;20467;-72
2022/06/19 11:21:26;;;;;;;6.10;5.47;;;34.50;73.40;;;;;;4993630;28;20462;-73
2022/06/19 11:23:56;;;;;;;7.67;5.80;;;34.40;70.50;;;;;;4993323;28;20469;-72
2022/06/19 11:26:26;;;;;;;8.77;5.87;;;34.40;69.00;;;;;;4993698;28;20859;-73
2022/06/19 11:28:58;;;;;;;11.80;7.17;;;34.40;70.80;;;;;;4992837;28;20497;-73
2022/06/19 11:31:28;;;;;;;9.30;6.00;;;34.50;70.40;;;;;;4989664;28;20561;-72
2022/06/19 11:33:59;;;;;;;10.20;6.03;;;34.60;70.10;;;;;;4990715;28;20489;-73
2022/06/19 11:36:35;;;;;;;9.47;6.27;;;34.60;69.60;;;;;;4991238;28;20491;-72
2022/06/19 11:39:23;;;;;;;8.07;5.63;;;34.70;72.70;;;;;;4990237;28;20468;-72
2022/06/19 11:41:51;;;;;;;9.87;6.10;;;34.80;71.00;;;;;;4990080;28;20466;-72
2022/06/19 11:44:20;;;;;;;9.50;5.80;;;34.80;68.80;;;;;;4990730;28;20469;-73
2022/06/19 11:46:50;;;;;;;10.47;6.40;;;34.90;70.00;;;;;;4990549;28;20489;-73
2022/06/19 11:49:28;;;;;;;9.63;6.07;;;34.90;73.20;;;;;;4989107;28;21007;-73
2022/06/19 11:51:58;;;;;;;11.43;6.20;;;35.00;70.90;;;;;;4990271;28;20835;-73
2022/06/19 11:54:28;;;;;;;12.43;7.03;;;35.00;69.50;;;;;;4990923;28;20481;-72
2022/06/19 11:56:57;;;;;;;10.80;6.17;;;35.10;69.60;;;;;;4990175;28;20474;-72
2022/06/19 11:59:33;;;;;;;10.30;6.40;;;35.30;73.30;;;;;;4990497;28;20485;-72
2022/06/19 12:02:00;;;;;;;9.17;6.07;;;35.50;73.80;;;;;;4990336;28;20466;-72
2022/06/19 12:04:33;;;;;;;8.40;5.50;;;35.60;73.20;;;;;;4990254;28;20469;-72
2022/06/19 12:07:02;;;;;;;6.83;5.90;;;35.70;70.60;;;;;;4990223;28;20845;-72
2022/06/19 12:09:40;;;;;;;8.23;5.70;;;35.60;69.30;;;;;;4989541;28;20891;-73
2022/06/19 12:12:17;;;;;;;9.10;6.13;;;35.50;68.10;;;;;;4991666;28;20491;-69
2022/06/19 12:14:56;;;;;;;10.97;6.20;;;35.70;72.80;;;;;;4988584;28;20498;-72
2022/06/19 12:17:26;;;;;;;10.73;5.90;;;35.80;69.90;;;;;;4990837;28;20478;-71
2022/06/19 12:19:57;;;;;;;12.80;6.70;;;35.90;69.80;;;;;;4989236;28;20469;-71
2022/06/19 12:22:30;;;;;;;12.13;6.30;;;35.90;72.80;;;;;;4989588;28;20485;-72
2022/06/19 12:25:04;;;;;;;7.60;5.90;;;36.00;74.70;;;;;;4990145;28;20505;-73
2022/06/19 12:27:39;;;;;;;13.07;5.80;;;36.10;71.60;;;;;;4990504;28;20518;-73
2022/06/19 12:30:10;;;;;;;9.20;5.80;;;36.30;70.90;;;;;;4990293;28;21195;-73
2022/06/19 12:32:43;;;;;;;7.07;6.30;;;36.10;70.40;;;;;;4990479;28;20558;-73
2022/06/19 12:35:21;;;;;;;10.90;5.90;;;36.10;71.00;;;;;;4988741;28;20524;-71
2022/06/19 12:37:48;;;;;;;9.90;4.97;;;36.30;71.70;;;;;;4989272;28;20485;-71
2022/06/19 12:40:18;;;;;;;8.83;6.13;;;36.40;71.80;;;;;;4989411;28;20473;-71
2022/06/19 12:42:52;;;;;;;7.07;5.13;;;36.40;67.90;;;;;;4989206;28;20573;-71
2022/06/19 12:45:36;;;;;;;11.07;6.70;;;36.40;68.50;;;;;;4988611;28;21122;-71
2022/06/19 12:48:15;;;;;;;7.93;5.50;;;36.20;67.00;;;;;;4988408;28;20498;-71
2022/06/19 12:50:50;;;;;;;13.60;6.10;;;36.10;67.10;;;;;;4988118;28;20474;-70
2022/06/19 12:53:43;;;;;;;10.83;5.10;;;36.10;66.60;;;;;;4988692;28;20469;-71
2022/06/19 12:56:19;;;;;;;11.13;6.33;;;36.20;67.40;;;;;;4989101;28;20454;-71
2022/06/19 12:59:13;;;;;;;11.90;5.90;;;36.10;67.50;;;;;;4987256;28;20466;-71
2022/06/19 13:01:47;;;;;;;8.47;5.33;;;36.30;70.50;;;;;;4988703;28;20466;-72
2022/06/19 13:04:28;;;;;;;11.50;6.00;;;36.30;65.70;;;;;;4989037;28;20474;-72
2022/06/19 13:07:07;;;;;;;9.43;5.67;;;36.20;64.60;;;;;;4988201;28;20485;-71
2022/06/19 13:10:00;;;;;;;10.70;6.23;;;36.10;66.40;;;;;;4981713;28;20486;-73
2022/06/19 13:12:47;;;;;;;11.40;5.73;;;35.90;66.40;;;;;;4982046;28;20461;-73